createdAt,value
2022-09-23T00:00:44.015Z,8.44
2022-09-23T00:01:44.078Z,8.44
2022-09-23T00:02:44.070Z,8.42
2022-09-23T00:03:43.994Z,8.42
2022-09-23T00:04:44.002Z,8.42
2022-09-23T00:05:43.974Z,8.44
2022-09-23T00:06:43.984Z,8.42
2022-09-23T00:07:43.974Z,8.41
2022-09-23T00:08:44.022Z,8.42
2022-09-23T00:09:43.963Z,8.42
2022-09-23T00:10:44.593Z,8.41
2022-09-23T00:11:43.882Z,8.41
2022-09-23T00:12:43.876Z,8.42
2022-09-23T00:13:43.852Z,8.41
2022-09-23T00:14:43.849Z,8.42
2022-09-23T00:15:43.832Z,8.42
2022-09-23T00:16:43.896Z,8.41
2022-09-23T00:17:43.813Z,8.41
2022-09-23T00:18:43.790Z,8.41
2022-09-23T00:19:43.790Z,8.41
2022-09-23T00:20:43.760Z,8.41
2022-09-23T00:21:43.751Z,8.42
2022-09-23T00:22:43.742Z,8.42
2022-09-23T00:23:43.741Z,8.42
2022-09-23T00:24:43.730Z,8.42
2022-09-23T00:25:43.731Z,8.45
2022-09-23T00:26:43.700Z,8.42
2022-09-23T00:27:43.723Z,8.44
2022-09-23T00:28:43.830Z,8.44
2022-09-23T00:29:43.700Z,8.44
2022-09-23T00:30:43.794Z,8.44
2022-09-23T00:31:43.699Z,8.44
2022-09-23T00:32:43.643Z,8.44
2022-09-23T00:33:43.648Z,8.44
2022-09-23T00:34:43.604Z,8.42
2022-09-23T00:35:43.577Z,8.42
2022-09-23T00:36:43.567Z,8.42
2022-09-23T00:37:43.555Z,8.42
2022-09-23T00:38:43.537Z,8.44
2022-09-23T00:39:43.538Z,8.42
2022-09-23T00:40:43.584Z,8.42
2022-09-23T00:41:43.496Z,8.42
2022-09-23T00:42:43.511Z,8.41
2022-09-23T00:43:43.466Z,8.41
2022-09-23T00:44:43.466Z,8.42
2022-09-23T00:45:43.494Z,8.42
2022-09-23T00:46:43.435Z,8.42
2022-09-23T00:47:43.425Z,8.41
2022-09-23T00:48:43.419Z,8.41
2022-09-23T00:49:43.435Z,8.42
2022-09-23T00:50:43.386Z,8.41
2022-09-23T00:51:43.379Z,8.41
2022-09-23T00:52:43.356Z,8.41
2022-09-23T00:53:43.337Z,8.37
2022-09-23T00:54:43.346Z,8.41
2022-09-23T00:55:43.315Z,8.38
2022-09-23T00:56:43.310Z,8.38
2022-09-23T00:57:43.305Z,8.41
2022-09-23T00:58:43.292Z,8.37
2022-09-23T00:59:43.324Z,8.41
2022-09-23T01:00:43.254Z,8.37
2022-09-23T01:01:43.263Z,8.38
2022-09-23T01:02:43.255Z,8.38
2022-09-23T01:03:43.214Z,8.38
2022-09-23T01:04:43.214Z,8.38
2022-09-23T01:05:43.193Z,8.38
2022-09-23T01:06:43.173Z,8.36
2022-09-23T01:07:43.162Z,8.37
2022-09-23T01:08:43.157Z,8.36
2022-09-23T01:09:43.146Z,8.37
2022-09-23T01:10:43.124Z,8.36
2022-09-23T01:11:43.112Z,8.37
2022-09-23T01:12:43.104Z,8.34
2022-09-23T01:13:43.083Z,8.36
2022-09-23T01:14:43.096Z,8.36
2022-09-23T01:15:43.063Z,8.36
2022-09-23T01:16:43.121Z,8.34
2022-09-23T01:17:43.033Z,8.36
2022-09-23T01:18:43.032Z,8.33
2022-09-23T01:19:43.022Z,8.34
2022-09-23T01:20:43.005Z,8.33
2022-09-23T01:21:42.992Z,8.33
2022-09-23T01:22:42.971Z,8.31
2022-09-23T01:23:42.960Z,8.31
2022-09-23T01:24:42.972Z,8.31
2022-09-23T01:25:42.931Z,8.33
2022-09-23T01:26:42.931Z,8.31
2022-09-23T01:27:42.921Z,8.30
2022-09-23T01:28:42.919Z,8.28
2022-09-23T01:29:42.899Z,8.28
2022-09-23T01:30:42.946Z,8.28
2022-09-23T01:31:42.862Z,8.28
2022-09-23T01:32:42.849Z,8.26
2022-09-23T01:33:42.830Z,8.27
2022-09-23T01:34:42.830Z,8.27
2022-09-23T01:35:42.809Z,8.26
2022-09-23T01:36:42.799Z,8.26
2022-09-23T01:37:42.779Z,8.26
2022-09-23T01:38:42.770Z,8.26
2022-09-23T01:39:42.763Z,8.26
2022-09-23T01:40:42.819Z,8.24
2022-09-23T01:41:42.741Z,8.26
2022-09-23T01:42:42.729Z,8.24
2022-09-23T01:43:42.709Z,8.24
2022-09-23T01:44:42.718Z,8.24
2022-09-23T01:45:42.708Z,8.24
2022-09-23T01:46:42.689Z,8.24
2022-09-23T01:47:42.648Z,8.23
2022-09-23T01:48:42.667Z,8.23
2022-09-23T01:49:42.678Z,8.23
2022-09-23T01:50:42.651Z,8.23
2022-09-23T01:51:42.598Z,8.23
2022-09-23T01:52:42.588Z,8.23
2022-09-23T01:53:42.567Z,8.23
2022-09-23T01:54:42.576Z,8.23
2022-09-23T01:55:42.546Z,8.24
2022-09-23T01:56:50.048Z,8.23
2022-09-23T01:57:50.025Z,8.20
2022-09-23T01:58:42.514Z,8.23
2022-09-23T01:59:42.514Z,8.23
2022-09-23T02:00:42.486Z,8.20
2022-09-23T02:01:42.537Z,8.23
2022-09-23T02:02:42.521Z,8.19
2022-09-23T02:03:42.445Z,8.20
2022-09-23T02:04:42.457Z,8.19
2022-09-23T02:05:42.422Z,8.18
2022-09-23T02:06:42.414Z,8.16
2022-09-23T02:07:42.403Z,8.16
2022-09-23T02:08:42.384Z,8.13
2022-09-23T02:09:42.382Z,8.12
2022-09-23T02:10:42.362Z,8.12
2022-09-23T02:11:42.351Z,8.12
2022-09-23T02:12:42.333Z,8.10
2022-09-23T02:13:42.314Z,8.09
2022-09-23T02:14:42.313Z,8.10
2022-09-23T02:15:42.292Z,8.08
2022-09-23T02:16:42.445Z,8.03
2022-09-23T02:17:42.262Z,8.05
2022-09-23T02:18:42.253Z,8.01
2022-09-23T02:19:42.250Z,8.01
2022-09-23T02:20:42.234Z,8.00
2022-09-23T02:21:42.221Z,7.98
2022-09-23T02:22:42.202Z,7.97
2022-09-23T02:23:42.181Z,7.97
2022-09-23T02:24:42.202Z,7.97
2022-09-23T02:25:42.181Z,7.95
2022-09-23T02:26:42.151Z,7.94
2022-09-23T02:27:42.141Z,7.94
2022-09-23T02:28:42.128Z,7.93
2022-09-23T02:29:42.121Z,7.91
2022-09-23T02:30:42.102Z,7.88
2022-09-23T02:31:42.139Z,7.90
2022-09-23T02:32:42.072Z,7.87
2022-09-23T02:33:42.059Z,7.85
2022-09-23T02:34:42.060Z,7.85
2022-09-23T02:35:42.029Z,7.83
2022-09-23T02:36:42.029Z,7.82
2022-09-23T02:37:42.008Z,7.80
2022-09-23T02:38:41.997Z,7.80
2022-09-23T02:39:42.019Z,7.77
2022-09-23T02:40:42.084Z,7.75
2022-09-23T02:41:41.962Z,7.75
2022-09-23T02:42:41.939Z,7.73
2022-09-23T02:43:41.927Z,7.72
2022-09-23T02:44:41.929Z,7.73
2022-09-23T02:45:41.974Z,7.73
2022-09-23T02:46:41.887Z,7.70
2022-09-23T02:47:41.876Z,7.69
2022-09-23T02:48:41.866Z,7.70
2022-09-23T02:49:41.859Z,7.69
2022-09-23T02:50:41.847Z,7.66
2022-09-23T02:51:41.838Z,7.66
2022-09-23T02:52:41.820Z,7.67
2022-09-23T02:53:41.797Z,7.63
2022-09-23T02:54:41.796Z,7.61
2022-09-23T02:55:41.774Z,7.60
2022-09-23T02:56:41.759Z,7.57
2022-09-23T02:57:41.745Z,7.53
2022-09-23T02:58:41.740Z,7.53
2022-09-23T02:59:41.726Z,7.50
2022-09-23T03:00:41.711Z,7.51
2022-09-23T03:01:41.763Z,7.50
2022-09-23T03:02:41.858Z,7.48
2022-09-23T03:03:41.666Z,7.47
2022-09-23T03:04:41.666Z,7.47
2022-09-23T03:05:41.652Z,7.45
2022-09-23T03:06:41.636Z,7.43
2022-09-23T03:07:41.614Z,7.42
2022-09-23T03:08:41.646Z,7.40
2022-09-23T03:09:41.593Z,7.39
2022-09-23T03:10:41.584Z,7.39
2022-09-23T03:11:41.563Z,7.39
2022-09-23T03:12:41.553Z,7.36
2022-09-23T03:13:41.535Z,7.36
2022-09-23T03:14:41.541Z,7.33
2022-09-23T03:15:41.512Z,7.31
2022-09-23T03:16:41.528Z,7.32
2022-09-23T03:17:41.513Z,7.31
2022-09-23T03:18:41.474Z,7.29
2022-09-23T03:19:41.472Z,7.29
2022-09-23T03:20:41.451Z,7.28
2022-09-23T03:21:41.434Z,7.25
2022-09-23T03:22:41.422Z,7.24
2022-09-23T03:23:41.412Z,7.25
2022-09-23T03:24:41.402Z,7.21
2022-09-23T03:25:41.392Z,7.20
2022-09-23T03:26:41.371Z,7.18
2022-09-23T03:27:41.350Z,7.14
2022-09-23T03:28:41.341Z,7.14
2022-09-23T03:29:41.328Z,7.14
2022-09-23T03:30:41.330Z,7.11
2022-09-23T03:31:41.353Z,7.10
2022-09-23T03:32:41.289Z,7.07
2022-09-23T03:33:41.290Z,7.06
2022-09-23T03:34:41.269Z,7.05
2022-09-23T03:35:41.260Z,7.06
2022-09-23T03:36:41.239Z,7.06
2022-09-23T03:37:41.228Z,7.03
2022-09-23T03:38:41.212Z,7.00
2022-09-23T03:39:41.205Z,7.00
2022-09-23T03:40:41.260Z,7.00
2022-09-23T03:41:41.168Z,6.97
2022-09-23T03:42:41.159Z,6.97
2022-09-23T03:43:41.146Z,6.96
2022-09-23T03:44:41.137Z,6.95
2022-09-23T03:45:41.161Z,6.95
2022-09-23T03:46:41.108Z,6.89
2022-09-23T03:47:41.095Z,6.89
2022-09-23T03:48:41.087Z,6.89
2022-09-23T03:49:41.067Z,6.89
2022-09-23T03:50:41.069Z,6.88
2022-09-23T03:51:44.491Z,6.87
2022-09-23T03:52:41.055Z,6.84
2022-09-23T03:53:41.020Z,6.82
2022-09-23T03:54:41.005Z,6.81
2022-09-23T03:55:40.995Z,6.81
2022-09-23T03:56:40.976Z,6.79
2022-09-23T03:57:40.974Z,6.77
2022-09-23T03:58:40.957Z,6.77
2022-09-23T03:59:40.943Z,6.75
2022-09-23T04:00:40.967Z,6.72
2022-09-23T04:01:40.993Z,6.72
2022-09-23T04:02:40.906Z,6.70
2022-09-23T04:03:40.896Z,6.69
2022-09-23T04:04:40.885Z,6.67
2022-09-23T04:05:40.875Z,6.66
2022-09-23T04:06:40.853Z,6.64
2022-09-23T04:07:40.843Z,6.62
2022-09-23T04:08:40.823Z,6.60
2022-09-23T04:09:40.813Z,6.62
2022-09-23T04:10:40.803Z,6.57
2022-09-23T04:11:40.783Z,6.56
2022-09-23T04:12:40.772Z,6.54
2022-09-23T04:13:40.762Z,6.52
2022-09-23T04:14:40.751Z,6.52
2022-09-23T04:15:40.742Z,6.51
2022-09-23T04:16:40.775Z,6.49
2022-09-23T04:17:40.712Z,6.46
2022-09-23T04:18:40.702Z,6.45
2022-09-23T04:19:40.680Z,6.46
2022-09-23T04:20:40.682Z,6.42
2022-09-23T04:21:40.651Z,6.41
2022-09-23T04:22:40.653Z,6.38
2022-09-23T04:23:40.629Z,6.38
2022-09-23T04:24:40.620Z,6.38
2022-09-23T04:25:40.610Z,6.35
2022-09-23T04:26:40.591Z,6.33
2022-09-23T04:27:40.578Z,6.31
2022-09-23T04:28:40.570Z,6.31
2022-09-23T04:29:40.586Z,6.30
2022-09-23T04:30:40.557Z,6.28
2022-09-23T04:31:40.619Z,6.28
2022-09-23T04:32:40.510Z,6.27
2022-09-23T04:33:40.499Z,6.26
2022-09-23T04:34:40.489Z,6.22
2022-09-23T04:35:40.623Z,6.22
2022-09-23T04:36:40.473Z,6.19
2022-09-23T04:37:40.440Z,6.17
2022-09-23T04:38:40.441Z,6.17
2022-09-23T04:39:40.418Z,6.17
2022-09-23T04:40:40.490Z,6.16
2022-09-23T04:41:40.407Z,6.14
2022-09-23T04:42:40.385Z,6.14
2022-09-23T04:43:40.379Z,6.14
2022-09-23T04:44:40.347Z,6.11
2022-09-23T04:45:40.364Z,6.11
2022-09-23T04:46:40.559Z,6.09
2022-09-23T04:47:40.316Z,6.08
2022-09-23T04:48:40.296Z,6.09
2022-09-23T04:49:40.295Z,6.07
2022-09-23T04:50:40.285Z,6.07
2022-09-23T04:51:40.276Z,6.07
2022-09-23T04:52:40.252Z,6.05
2022-09-23T04:53:40.244Z,6.04
2022-09-23T04:54:40.247Z,6.04
2022-09-23T04:55:40.225Z,6.04
2022-09-23T04:56:40.195Z,6.02
2022-09-23T04:57:40.184Z,6.02
2022-09-23T04:58:40.174Z,6.01
2022-09-23T04:59:40.164Z,6.02
2022-09-23T05:00:40.236Z,5.99
2022-09-23T05:01:40.333Z,6.01
2022-09-23T05:02:40.197Z,5.99
2022-09-23T05:03:40.113Z,6.01
2022-09-23T05:04:40.097Z,5.98
2022-09-23T05:05:40.092Z,5.99
2022-09-23T05:06:40.073Z,5.98
2022-09-23T05:07:40.059Z,5.97
2022-09-23T05:08:40.042Z,5.97
2022-09-23T05:09:40.031Z,5.97
2022-09-23T05:10:40.022Z,5.97
2022-09-23T05:11:40.011Z,5.94
2022-09-23T05:12:39.992Z,5.97
2022-09-23T05:13:39.990Z,5.97
2022-09-23T05:14:39.969Z,5.94
2022-09-23T05:15:39.968Z,5.97
2022-09-23T05:16:39.985Z,5.94
2022-09-23T05:17:39.931Z,5.97
2022-09-23T05:18:39.910Z,5.94
2022-09-23T05:19:39.923Z,5.97
2022-09-23T05:20:39.898Z,5.97
2022-09-23T05:21:39.880Z,5.98
2022-09-23T05:22:39.860Z,5.99
2022-09-23T05:23:39.859Z,5.99
2022-09-23T05:24:39.840Z,6.01
2022-09-23T05:25:39.839Z,6.02
2022-09-23T05:26:39.808Z,6.04
2022-09-23T05:27:39.800Z,6.04
2022-09-23T05:28:39.780Z,6.05
2022-09-23T05:29:39.777Z,6.07
2022-09-23T05:30:39.768Z,6.07
2022-09-23T05:31:39.784Z,6.09
2022-09-23T05:32:39.737Z,6.07
2022-09-23T05:33:39.728Z,6.09
2022-09-23T05:34:39.707Z,6.09
2022-09-23T05:35:39.707Z,6.11
2022-09-23T05:36:39.676Z,6.12
2022-09-23T05:37:39.681Z,6.11
2022-09-23T05:38:39.657Z,6.14
2022-09-23T05:39:39.638Z,6.12
2022-09-23T05:40:39.700Z,6.14
2022-09-23T05:41:39.617Z,6.17
2022-09-23T05:42:39.607Z,6.17
2022-09-23T05:43:39.595Z,6.20
2022-09-23T05:44:39.605Z,6.20
2022-09-23T05:45:39.577Z,6.24
2022-09-23T05:46:39.604Z,6.28
2022-09-23T05:47:39.548Z,6.36
2022-09-23T05:48:39.526Z,6.48
2022-09-23T05:49:58.487Z,6.59
2022-09-23T05:50:40.506Z,6.67
2022-09-23T05:51:39.484Z,6.74
2022-09-23T05:52:39.474Z,6.78
2022-09-23T05:53:39.584Z,6.84
2022-09-23T05:54:39.444Z,6.93
2022-09-23T05:55:39.453Z,7.05
2022-09-23T05:56:39.423Z,7.14
2022-09-23T05:57:39.411Z,7.28
2022-09-23T05:58:39.393Z,7.40
2022-09-23T05:59:39.383Z,7.53
2022-09-23T06:00:39.401Z,7.60
2022-09-23T06:01:39.459Z,7.70
2022-09-23T06:02:39.476Z,7.77
2022-09-23T06:03:39.342Z,7.80
2022-09-23T06:04:39.312Z,7.80
2022-09-23T06:05:39.323Z,7.80
2022-09-23T06:06:39.292Z,7.82
2022-09-23T06:07:39.288Z,7.83
2022-09-23T06:08:39.367Z,7.87
2022-09-23T06:09:39.269Z,7.91
2022-09-23T06:10:39.243Z,7.93
2022-09-23T06:11:39.232Z,7.95
2022-09-23T06:12:39.211Z,7.97
2022-09-23T06:13:39.204Z,7.98
2022-09-23T06:14:39.201Z,8.03
2022-09-23T06:15:39.230Z,8.06
2022-09-23T06:16:39.159Z,8.10
2022-09-23T06:17:39.157Z,8.12
2022-09-23T06:18:39.141Z,8.15
2022-09-23T06:19:39.139Z,8.19
2022-09-23T06:20:39.109Z,8.20
2022-09-23T06:21:39.099Z,8.23
2022-09-23T06:22:40.239Z,8.26
2022-09-23T06:23:41.550Z,8.26
2022-09-23T06:24:39.079Z,8.26
2022-09-23T06:25:39.058Z,8.27
2022-09-23T06:26:39.029Z,8.30
2022-09-23T06:27:39.029Z,8.33
2022-09-23T06:28:39.008Z,8.38
2022-09-23T06:29:39.000Z,8.49
2022-09-23T06:30:38.990Z,8.60
2022-09-23T06:31:39.021Z,8.70
2022-09-23T06:32:38.961Z,8.82
2022-09-23T06:33:38.947Z,8.94
2022-09-23T06:34:49.666Z,9.08
2022-09-23T06:35:40.417Z,9.22
2022-09-23T06:36:43.782Z,9.32
2022-09-23T06:37:39.895Z,9.48
2022-09-23T06:38:38.878Z,9.61
2022-09-23T06:39:38.869Z,9.73
2022-09-23T06:40:38.935Z,9.82
2022-09-23T06:41:38.858Z,9.92
2022-09-23T06:42:38.827Z,9.98
2022-09-23T06:43:38.816Z,10.10
2022-09-23T06:44:38.796Z,10.17
2022-09-23T06:45:38.797Z,10.26
2022-09-23T06:46:38.975Z,10.34
2022-09-23T06:47:38.766Z,10.41
2022-09-23T06:48:41.731Z,10.46
2022-09-23T06:49:39.738Z,10.51
2022-09-23T06:50:38.726Z,10.54
2022-09-23T06:51:38.716Z,10.60
2022-09-23T06:52:38.695Z,10.61
2022-09-23T06:53:38.676Z,10.61
2022-09-23T06:54:38.695Z,10.64
2022-09-23T06:55:38.679Z,10.72
2022-09-23T06:56:39.716Z,10.79
2022-09-23T06:57:38.636Z,10.89
2022-09-23T06:58:38.615Z,10.97
2022-09-23T06:59:38.617Z,11.04
2022-09-23T07:00:38.605Z,11.11
2022-09-23T07:01:38.737Z,11.14
2022-09-23T07:02:38.647Z,11.18
2022-09-23T07:03:38.566Z,11.23
2022-09-23T07:04:38.549Z,11.30
2022-09-23T07:05:38.554Z,11.40
2022-09-23T07:06:38.548Z,11.45
2022-09-23T07:07:38.495Z,11.52
2022-09-23T07:08:38.485Z,11.60
2022-09-23T07:09:38.474Z,11.77
2022-09-23T07:10:38.623Z,11.87
2022-09-23T07:11:38.457Z,12.02
2022-09-23T07:12:38.432Z,12.13
2022-09-23T07:13:38.425Z,12.25
2022-09-23T07:14:38.455Z,12.36
2022-09-23T07:15:38.614Z,12.45
2022-09-23T07:16:38.405Z,12.53
2022-09-23T07:17:38.385Z,12.57
2022-09-23T07:18:38.406Z,12.60
2022-09-23T07:19:38.349Z,12.62
2022-09-23T07:20:38.343Z,12.64
2022-09-23T07:21:38.345Z,12.68
2022-09-23T07:22:38.364Z,12.73
2022-09-23T07:23:38.305Z,12.79
2022-09-23T07:24:38.277Z,12.87
2022-09-23T07:25:38.284Z,12.95
2022-09-23T07:26:42.253Z,13.04
2022-09-23T07:27:39.244Z,13.12
2022-09-23T07:28:38.293Z,13.22
2022-09-23T07:29:47.299Z,13.35
2022-09-23T07:30:41.184Z,13.46
2022-09-23T07:31:40.040Z,13.54
2022-09-23T07:32:47.685Z,13.60
2022-09-23T07:33:39.217Z,13.71
2022-09-23T07:34:38.143Z,13.77
2022-09-23T07:35:38.144Z,13.83
2022-09-23T07:36:38.164Z,13.89
2022-09-23T07:37:38.143Z,13.95
2022-09-23T07:38:42.778Z,14.03
2022-09-23T07:39:39.108Z,14.08
2022-09-23T07:40:38.246Z,14.14
2022-09-23T07:41:38.058Z,14.18
2022-09-23T07:42:38.044Z,14.25
2022-09-23T07:43:38.036Z,14.26
2022-09-23T07:44:38.013Z,14.29
2022-09-23T07:45:38.013Z,14.30
2022-09-23T07:46:38.031Z,14.32
2022-09-23T07:47:37.993Z,14.35
2022-09-23T07:48:37.961Z,14.37
2022-09-23T07:49:37.953Z,14.41
2022-09-23T07:50:37.948Z,14.43
2022-09-23T07:51:37.924Z,14.47
2022-09-23T07:52:37.902Z,14.48
2022-09-23T07:53:37.904Z,14.50
2022-09-23T07:54:37.882Z,14.51
2022-09-23T07:55:37.882Z,14.53
2022-09-23T07:56:37.856Z,14.51
2022-09-23T07:57:37.843Z,14.54
2022-09-23T07:58:37.846Z,14.55
2022-09-23T07:59:37.823Z,14.60
2022-09-23T08:00:37.803Z,14.63
2022-09-23T08:01:37.806Z,14.66
2022-09-23T08:02:37.796Z,14.68
2022-09-23T08:03:37.763Z,14.73
2022-09-23T08:04:37.768Z,14.79
2022-09-23T08:05:37.732Z,14.88
2022-09-23T08:06:37.712Z,15.02
2022-09-23T08:07:37.702Z,15.15
2022-09-23T08:08:37.696Z,15.29
2022-09-23T08:09:37.694Z,15.42
2022-09-23T08:10:37.663Z,15.57
2022-09-23T08:11:37.661Z,15.75
2022-09-23T08:12:37.642Z,15.91
2022-09-23T08:13:37.639Z,16.12
2022-09-23T08:14:37.621Z,16.31
2022-09-23T08:15:37.721Z,16.51
2022-09-23T08:16:37.591Z,16.71
2022-09-23T08:17:37.575Z,16.91
2022-09-23T08:18:37.561Z,17.06
2022-09-23T08:19:37.564Z,17.16
2022-09-23T08:20:37.556Z,17.30
2022-09-23T08:21:37.586Z,17.45
2022-09-23T08:22:37.529Z,17.63
2022-09-23T08:23:37.503Z,17.79
2022-09-23T08:24:37.491Z,17.95
2022-09-23T08:25:37.480Z,18.07
2022-09-23T08:26:37.472Z,18.23
2022-09-23T08:27:37.444Z,18.34
2022-09-23T08:28:37.433Z,18.43
2022-09-23T08:29:37.431Z,18.52
2022-09-23T08:30:37.437Z,18.62
2022-09-23T08:31:37.391Z,18.74
2022-09-23T08:32:37.388Z,18.89
2022-09-23T08:33:37.377Z,19.04
2022-09-23T08:34:37.361Z,19.09
2022-09-23T08:35:37.343Z,19.19
2022-09-23T08:36:37.321Z,19.27
2022-09-23T08:37:37.311Z,19.36
2022-09-23T08:38:37.320Z,19.44
2022-09-23T08:39:37.301Z,19.51
2022-09-23T08:40:37.314Z,19.52
2022-09-23T08:41:37.261Z,19.58
2022-09-23T08:42:37.253Z,19.63
2022-09-23T08:43:37.246Z,19.70
2022-09-23T08:44:37.233Z,19.77
2022-09-23T08:45:37.213Z,19.89
2022-09-23T08:46:37.201Z,19.95
2022-09-23T08:47:37.183Z,20.03
2022-09-23T08:48:37.172Z,20.06
2022-09-23T08:49:37.171Z,20.10
2022-09-23T08:50:37.143Z,20.13
2022-09-23T08:51:37.129Z,20.16
2022-09-23T08:52:37.111Z,20.19
2022-09-23T08:53:37.101Z,20.28
2022-09-23T08:54:37.092Z,20.43
2022-09-23T08:55:37.081Z,20.60
2022-09-23T08:56:37.063Z,20.81
2022-09-23T08:57:37.050Z,21.00
2022-09-23T08:58:37.053Z,21.20
2022-09-23T08:59:37.031Z,21.42
2022-09-23T09:00:37.020Z,21.64
2022-09-23T09:01:37.039Z,21.85
2022-09-23T09:02:37.002Z,22.06
2022-09-23T09:03:36.980Z,22.25
2022-09-23T09:04:36.962Z,22.41
2022-09-23T09:05:36.951Z,22.60
2022-09-23T09:06:51.800Z,22.75
2022-09-23T09:07:38.422Z,22.90
2022-09-23T09:08:36.915Z,23.02
2022-09-23T09:09:36.893Z,23.12
2022-09-23T09:10:36.900Z,23.17
2022-09-23T09:11:36.861Z,23.20
2022-09-23T09:12:36.852Z,23.25
2022-09-23T09:13:36.850Z,23.34
2022-09-23T09:14:36.832Z,23.37
2022-09-23T09:15:36.844Z,23.43
2022-09-23T09:16:58.480Z,23.51
2022-09-23T09:17:37.798Z,23.61
2022-09-23T09:18:36.781Z,23.68
2022-09-23T09:19:36.762Z,23.76
2022-09-23T09:20:36.771Z,23.84
2022-09-23T09:21:36.742Z,23.91
2022-09-23T09:23:36.714Z,23.86
2022-09-23T09:24:36.702Z,23.73
2022-09-23T09:25:36.708Z,23.59
2022-09-23T09:26:36.682Z,23.48
2022-09-23T09:27:36.663Z,23.46
2022-09-23T09:28:36.654Z,23.44
2022-09-23T09:29:36.786Z,23.44
2022-09-23T09:30:36.698Z,23.50
2022-09-23T09:31:36.640Z,23.66
2022-09-23T09:32:36.592Z,23.81
2022-09-23T09:33:36.585Z,23.98
2022-09-23T09:34:36.570Z,24.14
2022-09-23T09:35:36.582Z,24.29
2022-09-23T09:36:36.550Z,24.40
2022-09-23T09:37:36.528Z,24.54
2022-09-23T09:38:36.523Z,24.65
2022-09-23T09:39:36.502Z,24.70
2022-09-23T09:40:36.542Z,24.77
2022-09-23T09:41:36.490Z,24.81
2022-09-23T09:42:36.463Z,24.88
2022-09-23T09:43:38.016Z,24.96
2022-09-23T09:44:37.205Z,25.04
2022-09-23T09:45:36.450Z,25.14
2022-09-23T09:46:36.453Z,25.23
2022-09-23T09:47:36.394Z,25.29
2022-09-23T09:48:36.414Z,25.35
2022-09-23T09:49:40.353Z,25.43
2022-09-23T09:50:36.372Z,25.46
2022-09-23T09:51:36.342Z,25.48
2022-09-23T09:52:37.994Z,25.53
2022-09-23T09:53:36.259Z,25.58
2022-09-23T09:54:36.258Z,25.60
2022-09-23T09:55:36.249Z,25.63
2022-09-23T09:56:36.323Z,25.60
2022-09-23T09:57:36.350Z,25.55
2022-09-23T09:58:36.207Z,25.53
2022-09-23T09:59:36.187Z,25.50
2022-09-23T10:00:36.186Z,25.48
2022-09-23T10:01:36.211Z,25.51
2022-09-23T10:02:36.195Z,25.50
2022-09-23T10:03:36.132Z,25.51
2022-09-23T10:04:36.157Z,25.54
2022-09-23T10:05:36.125Z,25.55
2022-09-23T10:06:36.097Z,25.62
2022-09-23T10:07:36.084Z,25.68
2022-09-23T10:08:36.064Z,25.68
2022-09-23T10:09:36.055Z,25.70
2022-09-23T10:10:36.066Z,25.77
2022-09-23T10:11:36.030Z,25.85
2022-09-23T10:12:36.014Z,25.93
2022-09-23T10:13:36.016Z,26.05
2022-09-23T10:14:35.983Z,26.07
2022-09-23T10:15:35.982Z,26.15
2022-09-23T10:16:36.036Z,26.19
2022-09-23T10:17:35.944Z,26.25
2022-09-23T10:18:35.944Z,26.29
2022-09-23T10:19:35.913Z,26.28
2022-09-23T10:20:35.924Z,26.28
2022-09-23T10:21:35.902Z,26.28
2022-09-23T10:22:35.882Z,26.29
2022-09-23T10:23:35.864Z,26.28
2022-09-23T10:24:35.863Z,26.22
2022-09-23T10:25:35.854Z,26.22
2022-09-23T10:26:35.834Z,26.25
2022-09-23T10:27:35.849Z,26.29
2022-09-23T10:28:35.804Z,26.31
2022-09-23T10:29:35.792Z,26.33
2022-09-23T10:30:35.814Z,26.34
2022-09-23T10:31:35.765Z,26.33
2022-09-23T10:32:35.774Z,26.31
2022-09-23T10:33:35.737Z,26.33
2022-09-23T10:34:35.747Z,26.29
2022-09-23T10:35:35.716Z,26.28
2022-09-23T10:36:35.706Z,26.25
2022-09-23T10:37:35.695Z,26.18
2022-09-23T10:38:35.677Z,26.06
2022-09-23T10:39:35.678Z,26.00
2022-09-23T10:40:35.709Z,25.93
2022-09-23T10:41:35.638Z,25.85
2022-09-23T10:42:35.639Z,25.77
2022-09-23T10:43:35.611Z,25.69
2022-09-23T10:44:35.600Z,25.54
2022-09-23T10:45:38.541Z,25.41
2022-09-23T10:46:36.635Z,25.28
2022-09-23T10:47:35.574Z,25.14
2022-09-23T10:48:35.552Z,25.04
2022-09-23T10:49:35.533Z,24.98
2022-09-23T10:50:35.539Z,24.91
2022-09-23T10:51:35.514Z,24.88
2022-09-23T10:52:35.505Z,24.84
2022-09-23T10:53:35.486Z,24.85
2022-09-23T10:54:35.477Z,24.84
2022-09-23T10:55:35.466Z,24.84
2022-09-23T10:56:35.453Z,24.76
2022-09-23T10:57:35.436Z,24.68
2022-09-23T10:58:35.428Z,24.57
2022-09-23T10:59:35.410Z,24.48
2022-09-23T11:00:35.408Z,24.40
2022-09-23T11:01:35.436Z,24.36
2022-09-23T11:02:35.391Z,24.38
2022-09-23T11:03:35.363Z,24.39
2022-09-23T11:04:35.431Z,24.39
2022-09-23T11:05:35.341Z,24.38
2022-09-23T11:06:35.322Z,24.33
2022-09-23T11:07:37.188Z,24.33
2022-09-23T11:08:35.302Z,24.33
2022-09-23T11:09:35.283Z,24.36
2022-09-23T11:10:46.098Z,24.36
2022-09-23T11:11:36.254Z,24.36
2022-09-23T11:12:35.247Z,24.38
2022-09-23T11:13:35.233Z,24.36
2022-09-23T11:14:35.230Z,24.35
2022-09-23T11:15:35.224Z,24.35
2022-09-23T11:16:35.242Z,24.35
2022-09-23T11:17:35.181Z,24.33
2022-09-23T11:18:35.167Z,24.33
2022-09-23T11:19:35.165Z,24.33
2022-09-23T11:20:35.148Z,24.30
2022-09-23T11:21:35.130Z,24.30
2022-09-23T11:22:35.122Z,24.30
2022-09-23T11:23:35.108Z,24.23
2022-09-23T11:24:35.101Z,24.23
2022-09-23T11:25:35.087Z,24.21
2022-09-23T11:26:35.071Z,24.23
2022-09-23T11:27:35.058Z,24.23
2022-09-23T11:28:35.041Z,24.23
2022-09-23T11:29:35.034Z,24.21
2022-09-23T11:30:35.052Z,24.21
2022-09-23T11:31:35.107Z,24.21
2022-09-23T11:32:34.992Z,24.23
2022-09-23T11:33:35.002Z,24.23
2022-09-23T11:34:34.972Z,24.21
2022-09-23T11:35:34.952Z,24.23
2022-09-23T11:36:34.953Z,24.21
2022-09-23T11:37:34.924Z,24.18
2022-09-23T11:38:34.922Z,24.13
2022-09-23T11:39:34.927Z,24.08
2022-09-23T11:40:34.962Z,24.05
2022-09-23T11:41:34.872Z,24.02
2022-09-23T11:42:34.864Z,24.01
2022-09-23T11:43:34.846Z,23.99
2022-09-23T11:44:34.846Z,23.99
2022-09-23T11:45:34.864Z,23.96
2022-09-23T11:46:34.812Z,23.95
2022-09-23T11:47:39.468Z,23.96
2022-09-23T11:48:35.784Z,23.96
2022-09-23T11:49:34.768Z,23.99
2022-09-23T11:50:34.777Z,23.96
2022-09-23T11:51:34.736Z,23.96
2022-09-23T11:52:34.740Z,23.92
2022-09-23T11:53:34.728Z,23.88
2022-09-23T11:54:34.712Z,23.84
2022-09-23T11:55:34.728Z,23.83
2022-09-23T11:56:36.596Z,23.80
2022-09-23T11:57:44.639Z,23.80
2022-09-23T11:58:35.697Z,23.78
2022-09-23T11:59:39.920Z,23.81
2022-09-23T12:00:35.640Z,23.84
2022-09-23T12:01:37.665Z,23.88
2022-09-23T12:02:34.682Z,23.92
2022-09-23T12:03:43.091Z,23.95
2022-09-23T12:04:36.393Z,23.96
2022-09-23T12:05:34.729Z,23.91
2022-09-23T12:06:34.594Z,23.81
2022-09-23T12:07:34.534Z,23.73
2022-09-23T12:08:34.530Z,23.62
2022-09-23T12:09:57.362Z,23.59
2022-09-23T12:10:35.493Z,23.56
2022-09-23T12:11:34.504Z,23.58
2022-09-23T12:12:34.481Z,23.58
2022-09-23T12:13:34.471Z,23.59
2022-09-23T12:14:34.475Z,23.62
2022-09-23T12:15:34.447Z,23.65
2022-09-23T12:16:34.499Z,23.65
2022-09-23T12:17:34.424Z,23.66
2022-09-23T12:18:34.471Z,23.65
2022-09-23T12:19:35.489Z,23.65
2022-09-23T12:20:34.373Z,23.66
2022-09-23T12:21:51.355Z,23.69
2022-09-23T12:22:35.358Z,23.71
2022-09-23T12:23:34.334Z,23.73
2022-09-23T12:24:34.338Z,23.74
2022-09-23T12:25:34.306Z,23.77
2022-09-23T12:26:34.320Z,23.78
2022-09-23T12:27:34.316Z,23.77
2022-09-23T12:28:34.353Z,23.78
2022-09-23T12:29:34.286Z,23.78
2022-09-23T12:30:34.442Z,23.78
2022-09-23T12:31:37.551Z,23.80
2022-09-23T12:32:35.215Z,23.80
2022-09-23T12:33:34.228Z,23.84
2022-09-23T12:34:34.216Z,23.87
2022-09-23T12:35:34.174Z,23.93
2022-09-23T12:36:34.163Z,23.98
2022-09-23T12:37:34.157Z,24.03
2022-09-23T12:38:34.138Z,24.06
2022-09-23T12:39:34.137Z,24.08
2022-09-23T12:40:34.175Z,24.08
2022-09-23T12:41:34.119Z,24.11
2022-09-23T12:42:34.129Z,24.14
2022-09-23T12:43:34.080Z,24.14
2022-09-23T12:44:34.129Z,24.16
2022-09-23T12:45:34.126Z,24.16
2022-09-23T12:46:34.050Z,24.14
2022-09-23T12:47:34.019Z,24.14
2022-09-23T12:48:34.010Z,24.14
2022-09-23T12:49:34.076Z,24.13
2022-09-23T12:50:34.032Z,24.14
2022-09-23T12:51:33.961Z,24.17
2022-09-23T12:52:34.001Z,24.16
2022-09-23T12:53:33.953Z,24.18
2022-09-23T12:54:34.170Z,24.17
2022-09-23T12:55:33.938Z,24.16
2022-09-23T12:56:33.929Z,24.14
2022-09-23T12:57:33.960Z,24.13
2022-09-23T12:58:33.910Z,24.14
2022-09-23T12:59:33.884Z,24.17
2022-09-23T13:00:34.437Z,24.16
2022-09-23T13:01:33.936Z,24.14
2022-09-23T13:02:33.943Z,24.14
2022-09-23T13:03:33.824Z,24.14
2022-09-23T13:04:33.843Z,24.14
2022-09-23T13:05:33.789Z,24.16
2022-09-23T13:06:33.773Z,24.18